Burlington, VT

2:53 AM EST on February 09, 2016 (GMT -0500)
Old North End | | Change Station
CLOSE
Current Station
Personal Weather Station
Location: Burlington, VT
Elevation: 226 ft
Nearby Weather Stations

Elev 226 ft 44.49 °N, 73.22 °W | Updated 8 seconds ago

Snow
Snow
21.6 °F
Feels Like 22 °F
N
0.0
Wind Variable Wind from North
Gusts 0.0 mph

Today
High -- | Low -- °F
--% Chance of Precip.
Yesterday
High -- | Low -- °F
Precip. -- in
Pressure 29.74 in
Visibility 2.5 miles
Clouds Overcast 3700 ft
Windchill 22 °F
Dew Point 16 °F
Humidity 79%
Rainfall 0.00 in
Snow Depth Not available.
7:02 AM 5:12 PM
New Moon, 1% visible
SPECI KBTV 090735Z AUTO 04003KT 2 1/2SM -SN BR OVC037 M06/M08 A2974 RMK AO2 P0000 T10611083
Pressure 29.74 in
Visibility 2.5 miles
Clouds Overcast 3700 ft
Windchill 22 °F
Dew Point 16 °F
Humidity 79%
Rainfall 0.00 in
Snow Depth Not available.
7:02 AM 5:12 PM
New Moon, 1% visible
SPECI KBTV 090735Z AUTO 04003KT 2 1/2SM -SN BR OVC037 M06/M08 A2974 RMK AO2 P0000 T10611083

10-Day Weather Forecast

Almanac

Astronomy

Feb. 09, 2016 Rise Set
Actual Time
Civil Twilight
Nautical Twilight
Astronomical Twilight
Moon
Length of Visible Light
Length of Day
Tomorrow will be .
, % of the Moon is Illuminated

Today's Extremes

State Highs State Lows

Community

WunderPhotos

Upload Photos

1,891,571 photos uploaded!

WunderBlog® & News

Nearby

Air Quality

  Air Quality AQ Index Pollutant
Not available.

Snow Depth

Station Depth Elevation

Earthquake Activity

City Distance Mag. Time & Date
Minimum magnitude displayed is 2.5.

Coastal Water Temperatures

Place Temperature

Stations

Nearby Weather Stations

Station Location Temp. Windchill Dew Point Humidity Wind Precip. Elev Updated Type
                   

Watches & Warnings

There are currently no watches in effect.